sensor_id;sensor_type;location;lat;lon;timestamp;P1;durP1;ratioP1;P2;durP2;ratioP2
15818;SDS011;8010;53.986;12.106;2023-06-24T00:00:08;5.07;;;4.20;;
15818;SDS011;8010;53.986;12.106;2023-06-24T00:02:37;4.17;;;3.77;;
15818;SDS011;8010;53.986;12.106;2023-06-24T00:05:04;7.13;;;4.17;;
15818;SDS011;8010;53.986;12.106;2023-06-24T00:07:31;5.43;;;4.17;;
15818;SDS011;8010;53.986;12.106;2023-06-24T00:09:56;6.77;;;4.33;;
15818;SDS011;8010;53.986;12.106;2023-06-24T00:12:22;5.57;;;3.90;;
15818;SDS011;8010;53.986;12.106;2023-06-24T00:14:48;5.30;;;4.43;;
15818;SDS011;8010;53.986;12.106;2023-06-24T00:17:14;4.87;;;4.27;;
15818;SDS011;8010;53.986;12.106;2023-06-24T00:19:41;6.20;;;3.90;;
15818;SDS011;8010;53.986;12.106;2023-06-24T00:22:08;5.53;;;3.90;;
15818;SDS011;8010;53.986;12.106;2023-06-24T00:24:34;6.20;;;4.63;;
15818;SDS011;8010;53.986;12.106;2023-06-24T00:27:00;5.00;;;3.90;;
15818;SDS011;8010;53.986;12.106;2023-06-24T00:29:25;5.00;;;4.27;;
15818;SDS011;8010;53.986;12.106;2023-06-24T00:31:51;5.83;;;4.27;;
15818;SDS011;8010;53.986;12.106;2023-06-24T00:34:16;5.87;;;4.83;;
15818;SDS011;8010;53.986;12.106;2023-06-24T00:36:44;5.90;;;4.33;;
15818;SDS011;8010;53.986;12.106;2023-06-24T00:39:11;9.40;;;5.10;;
15818;SDS011;8010;53.986;12.106;2023-06-24T00:41:37;7.90;;;4.70;;
15818;SDS011;8010;53.986;12.106;2023-06-24T00:44:03;7.17;;;4.60;;
15818;SDS011;8010;53.986;12.106;2023-06-24T00:46:29;6.07;;;4.47;;
15818;SDS011;8010;53.986;12.106;2023-06-24T00:48:58;7.70;;;4.63;;
15818;SDS011;8010;53.986;12.106;2023-06-24T00:51:23;4.77;;;3.83;;
15818;SDS011;8010;53.986;12.106;2023-06-24T00:53:58;6.03;;;4.23;;
15818;SDS011;8010;53.986;12.106;2023-06-24T00:56:25;5.00;;;4.30;;
15818;SDS011;8010;53.986;12.106;2023-06-24T00:59:12;5.10;;;4.13;;
15818;SDS011;8010;53.986;12.106;2023-06-24T01:01:39;13.20;;;4.87;;
15818;SDS011;8010;53.986;12.106;2023-06-24T01:04:06;8.00;;;4.80;;
15818;SDS011;8010;53.986;12.106;2023-06-24T01:06:34;5.33;;;4.37;;
15818;SDS011;8010;53.986;12.106;2023-06-24T01:09:01;8.23;;;4.43;;
15818;SDS011;8010;53.986;12.106;2023-06-24T01:11:28;8.93;;;4.57;;
15818;SDS011;8010;53.986;12.106;2023-06-24T01:13:54;6.93;;;4.73;;
15818;SDS011;8010;53.986;12.106;2023-06-24T01:19:19;7.07;;;4.57;;
15818;SDS011;8010;53.986;12.106;2023-06-24T01:30:32;8.50;;;4.97;;
15818;SDS011;8010;53.986;12.106;2023-06-24T01:33:32;6.53;;;4.53;;
15818;SDS011;8010;53.986;12.106;2023-06-24T01:36:07;5.93;;;4.67;;
15818;SDS011;8010;53.986;12.106;2023-06-24T01:38:36;4.97;;;4.30;;
15818;SDS011;8010;53.986;12.106;2023-06-24T01:41:09;5.03;;;3.67;;
15818;SDS011;8010;53.986;12.106;2023-06-24T01:43:38;5.20;;;4.20;;
15818;SDS011;8010;53.986;12.106;2023-06-24T01:46:07;9.53;;;4.43;;
15818;SDS011;8010;53.986;12.106;2023-06-24T01:48:35;6.47;;;4.77;;
15818;SDS011;8010;53.986;12.106;2023-06-24T01:51:09;5.93;;;4.60;;
15818;SDS011;8010;53.986;12.106;2023-06-24T01:53:38;9.70;;;4.83;;
15818;SDS011;8010;53.986;12.106;2023-06-24T01:56:07;5.90;;;4.33;;
15818;SDS011;8010;53.986;12.106;2023-06-24T01:58:37;11.27;;;4.70;;
15818;SDS011;8010;53.986;12.106;2023-06-24T02:01:04;9.70;;;4.93;;
15818;SDS011;8010;53.986;12.106;2023-06-24T02:03:31;8.23;;;4.50;;
15818;SDS011;8010;53.986;12.106;2023-06-24T02:05:58;7.17;;;4.77;;
15818;SDS011;8010;53.986;12.106;2023-06-24T02:08:26;6.53;;;4.93;;
15818;SDS011;8010;53.986;12.106;2023-06-24T02:10:55;6.67;;;4.43;;
15818;SDS011;8010;53.986;12.106;2023-06-24T02:13:23;5.50;;;4.47;;
15818;SDS011;8010;53.986;12.106;2023-06-24T02:15:49;7.53;;;4.60;;
15818;SDS011;8010;53.986;12.106;2023-06-24T02:18:16;6.30;;;4.33;;
15818;SDS011;8010;53.986;12.106;2023-06-24T02:20:44;7.23;;;4.87;;
15818;SDS011;8010;53.986;12.106;2023-06-24T02:23:13;8.37;;;4.90;;
15818;SDS011;8010;53.986;12.106;2023-06-24T02:25:38;8.50;;;4.57;;
15818;SDS011;8010;53.986;12.106;2023-06-24T02:28:05;8.83;;;5.23;;
15818;SDS011;8010;53.986;12.106;2023-06-24T02:30:32;6.53;;;4.30;;
15818;SDS011;8010;53.986;12.106;2023-06-24T02:33:00;7.43;;;4.97;;
15818;SDS011;8010;53.986;12.106;2023-06-24T02:35:26;6.47;;;5.00;;
15818;SDS011;8010;53.986;12.106;2023-06-24T02:37:51;7.77;;;4.67;;
15818;SDS011;8010;53.986;12.106;2023-06-24T02:40:17;7.90;;;4.97;;
15818;SDS011;8010;53.986;12.106;2023-06-24T02:42:43;11.17;;;5.07;;
15818;SDS011;8010;53.986;12.106;2023-06-24T02:45:09;10.30;;;4.63;;
15818;SDS011;8010;53.986;12.106;2023-06-24T02:47:35;6.33;;;5.03;;
15818;SDS011;8010;53.986;12.106;2023-06-24T02:50:01;7.13;;;4.60;;
15818;SDS011;8010;53.986;12.106;2023-06-24T02:52:30;6.33;;;4.83;;
15818;SDS011;8010;53.986;12.106;2023-06-24T02:54:56;6.30;;;4.53;;
15818;SDS011;8010;53.986;12.106;2023-06-24T02:57:23;7.90;;;4.80;;
15818;SDS011;8010;53.986;12.106;2023-06-24T02:59:50;6.43;;;4.53;;
15818;SDS011;8010;53.986;12.106;2023-06-24T03:02:16;9.30;;;4.93;;
15818;SDS011;8010;53.986;12.106;2023-06-24T03:04:42;8.77;;;4.90;;
15818;SDS011;8010;53.986;12.106;2023-06-24T03:07:09;7.10;;;4.63;;
15818;SDS011;8010;53.986;12.106;2023-06-24T03:09:35;5.47;;;4.50;;
15818;SDS011;8010;53.986;12.106;2023-06-24T03:12:01;6.67;;;4.77;;
15818;SDS011;8010;53.986;12.106;2023-06-24T03:14:26;10.67;;;4.33;;
15818;SDS011;8010;53.986;12.106;2023-06-24T03:16:52;6.73;;;5.10;;
15818;SDS011;8010;53.986;12.106;2023-06-24T03:19:17;6.17;;;4.40;;
15818;SDS011;8010;53.986;12.106;2023-06-24T03:21:43;7.97;;;5.03;;
15818;SDS011;8010;53.986;12.106;2023-06-24T03:24:08;6.53;;;4.40;;
15818;SDS011;8010;53.986;12.106;2023-06-24T03:26:35;7.63;;;4.60;;
15818;SDS011;8010;53.986;12.106;2023-06-24T03:29:01;7.13;;;4.70;;
15818;SDS011;8010;53.986;12.106;2023-06-24T03:31:28;7.57;;;4.70;;
15818;SDS011;8010;53.986;12.106;2023-06-24T03:33:53;9.73;;;4.53;;
15818;SDS011;8010;53.986;12.106;2023-06-24T03:36:19;8.33;;;5.40;;
15818;SDS011;8010;53.986;12.106;2023-06-24T03:38:45;5.67;;;4.60;;
15818;SDS011;8010;53.986;12.106;2023-06-24T03:41:10;7.03;;;4.87;;
15818;SDS011;8010;53.986;12.106;2023-06-24T03:43:36;6.53;;;5.00;;
15818;SDS011;8010;53.986;12.106;2023-06-24T03:46:01;5.70;;;4.70;;
15818;SDS011;8010;53.986;12.106;2023-06-24T03:48:27;6.10;;;4.60;;
15818;SDS011;8010;53.986;12.106;2023-06-24T03:50:53;7.10;;;4.77;;
15818;SDS011;8010;53.986;12.106;2023-06-24T03:53:18;6.90;;;5.03;;
15818;SDS011;8010;53.986;12.106;2023-06-24T03:55:44;6.50;;;5.10;;
15818;SDS011;8010;53.986;12.106;2023-06-24T03:58:10;5.93;;;4.97;;
15818;SDS011;8010;53.986;12.106;2023-06-24T04:00:35;8.77;;;5.80;;
15818;SDS011;8010;53.986;12.106;2023-06-24T04:03:05;5.47;;;4.63;;
15818;SDS011;8010;53.986;12.106;2023-06-24T04:05:32;8.70;;;5.17;;
15818;SDS011;8010;53.986;12.106;2023-06-24T04:07:58;9.77;;;5.57;;
15818;SDS011;8010;53.986;12.106;2023-06-24T04:10:23;7.77;;;5.67;;
15818;SDS011;8010;53.986;12.106;2023-06-24T04:12:49;11.80;;;5.70;;
15818;SDS011;8010;53.986;12.106;2023-06-24T04:15:15;7.33;;;5.50;;
15818;SDS011;8010;53.986;12.106;2023-06-24T04:17:40;8.37;;;5.93;;
15818;SDS011;8010;53.986;12.106;2023-06-24T04:20:06;8.83;;;5.60;;
15818;SDS011;8010;53.986;12.106;2023-06-24T04:22:33;9.77;;;5.53;;
15818;SDS011;8010;53.986;12.106;2023-06-24T04:24:59;12.80;;;5.63;;
15818;SDS011;8010;53.986;12.106;2023-06-24T04:27:25;8.37;;;6.03;;
15818;SDS011;8010;53.986;12.106;2023-06-24T04:29:51;7.23;;;5.53;;
15818;SDS011;8010;53.986;12.106;2023-06-24T04:32:16;7.43;;;5.50;;
15818;SDS011;8010;53.986;12.106;2023-06-24T04:34:42;7.57;;;5.27;;
15818;SDS011;8010;53.986;12.106;2023-06-24T04:37:07;10.90;;;5.87;;
15818;SDS011;8010;53.986;12.106;2023-06-24T04:39:33;11.20;;;6.17;;
15818;SDS011;8010;53.986;12.106;2023-06-24T04:41:58;12.33;;;6.20;;
15818;SDS011;8010;53.986;12.106;2023-06-24T04:44:24;12.77;;;6.17;;
15818;SDS011;8010;53.986;12.106;2023-06-24T04:46:50;13.17;;;6.57;;
15818;SDS011;8010;53.986;12.106;2023-06-24T04:49:17;10.10;;;6.77;;
15818;SDS011;8010;53.986;12.106;2023-06-24T04:51:43;8.40;;;6.67;;
15818;SDS011;8010;53.986;12.106;2023-06-24T04:54:09;10.17;;;6.47;;
15818;SDS011;8010;53.986;12.106;2023-06-24T04:56:37;10.97;;;6.47;;
15818;SDS011;8010;53.986;12.106;2023-06-24T04:59:03;9.00;;;5.67;;
15818;SDS011;8010;53.986;12.106;2023-06-24T05:01:28;8.20;;;5.67;;
15818;SDS011;8010;53.986;12.106;2023-06-24T05:03:54;8.53;;;6.17;;
15818;SDS011;8010;53.986;12.106;2023-06-24T05:06:19;9.00;;;5.43;;
15818;SDS011;8010;53.986;12.106;2023-06-24T05:08:45;11.30;;;6.10;;
15818;SDS011;8010;53.986;12.106;2023-06-24T05:11:10;9.27;;;6.27;;
15818;SDS011;8010;53.986;12.106;2023-06-24T05:13:36;10.07;;;5.93;;
15818;SDS011;8010;53.986;12.106;2023-06-24T05:16:02;7.80;;;6.23;;
15818;SDS011;8010;53.986;12.106;2023-06-24T05:18:28;7.83;;;5.80;;
15818;SDS011;8010;53.986;12.106;2023-06-24T05:20:53;9.70;;;5.77;;
15818;SDS011;8010;53.986;12.106;2023-06-24T05:23:19;7.77;;;5.73;;
15818;SDS011;8010;53.986;12.106;2023-06-24T05:25:44;8.43;;;6.07;;
15818;SDS011;8010;53.986;12.106;2023-06-24T05:28:10;7.90;;;5.83;;
15818;SDS011;8010;53.986;12.106;2023-06-24T05:30:35;8.30;;;6.30;;
15818;SDS011;8010;53.986;12.106;2023-06-24T05:33:01;6.83;;;5.80;;
15818;SDS011;8010;53.986;12.106;2023-06-24T05:35:26;6.97;;;5.67;;
15818;SDS011;8010;53.986;12.106;2023-06-24T05:37:52;7.67;;;5.93;;
15818;SDS011;8010;53.986;12.106;2023-06-24T05:40:17;10.13;;;6.37;;
15818;SDS011;8010;53.986;12.106;2023-06-24T05:42:43;6.97;;;5.33;;
15818;SDS011;8010;53.986;12.106;2023-06-24T05:45:08;9.70;;;5.83;;
15818;SDS011;8010;53.986;12.106;2023-06-24T05:47:34;10.27;;;5.60;;
15818;SDS011;8010;53.986;12.106;2023-06-24T05:50:00;8.90;;;5.07;;
15818;SDS011;8010;53.986;12.106;2023-06-24T05:52:25;7.47;;;5.30;;
15818;SDS011;8010;53.986;12.106;2023-06-24T05:54:53;7.13;;;5.17;;
15818;SDS011;8010;53.986;12.106;2023-06-24T05:57:19;11.83;;;4.97;;
15818;SDS011;8010;53.986;12.106;2023-06-24T05:59:44;7.23;;;5.23;;
15818;SDS011;8010;53.986;12.106;2023-06-24T06:02:10;5.43;;;4.60;;
15818;SDS011;8010;53.986;12.106;2023-06-24T06:04:35;7.27;;;4.93;;
15818;SDS011;8010;53.986;12.106;2023-06-24T06:07:01;7.13;;;5.13;;
15818;SDS011;8010;53.986;12.106;2023-06-24T06:09:26;8.50;;;6.03;;
15818;SDS011;8010;53.986;12.106;2023-06-24T06:11:52;6.73;;;5.53;;
15818;SDS011;8010;53.986;12.106;2023-06-24T06:14:17;11.23;;;5.63;;
15818;SDS011;8010;53.986;12.106;2023-06-24T06:16:43;7.43;;;4.80;;
15818;SDS011;8010;53.986;12.106;2023-06-24T06:19:09;6.57;;;4.70;;
15818;SDS011;8010;53.986;12.106;2023-06-24T06:21:35;7.73;;;4.77;;
15818;SDS011;8010;53.986;12.106;2023-06-24T06:24:01;5.97;;;4.60;;
15818;SDS011;8010;53.986;12.106;2023-06-24T06:26:27;7.10;;;4.40;;
15818;SDS011;8010;53.986;12.106;2023-06-24T06:28:52;8.87;;;5.23;;
15818;SDS011;8010;53.986;12.106;2023-06-24T06:31:18;7.17;;;4.67;;
15818;SDS011;8010;53.986;12.106;2023-06-24T06:33:44;6.77;;;4.23;;
15818;SDS011;8010;53.986;12.106;2023-06-24T06:36:09;8.27;;;5.10;;
15818;SDS011;8010;53.986;12.106;2023-06-24T06:38:35;5.50;;;4.33;;
15818;SDS011;8010;53.986;12.106;2023-06-24T06:41:00;4.63;;;4.20;;
15818;SDS011;8010;53.986;12.106;2023-06-24T06:43:26;5.57;;;4.00;;
15818;SDS011;8010;53.986;12.106;2023-06-24T06:45:52;4.43;;;3.97;;
15818;SDS011;8010;53.986;12.106;2023-06-24T06:48:17;10.47;;;3.73;;
15818;SDS011;8010;53.986;12.106;2023-06-24T06:50:44;6.70;;;4.23;;
15818;SDS011;8010;53.986;12.106;2023-06-24T06:53:10;6.63;;;3.97;;
15818;SDS011;8010;53.986;12.106;2023-06-24T06:55:36;6.23;;;3.60;;
15818;SDS011;8010;53.986;12.106;2023-06-24T06:58:04;4.53;;;3.53;;
15818;SDS011;8010;53.986;12.106;2023-06-24T07:00:29;5.90;;;3.43;;
15818;SDS011;8010;53.986;12.106;2023-06-24T07:02:55;4.60;;;3.80;;
15818;SDS011;8010;53.986;12.106;2023-06-24T07:05:20;4.73;;;3.07;;
15818;SDS011;8010;53.986;12.106;2023-06-24T07:07:46;4.03;;;3.67;;
15818;SDS011;8010;53.986;12.106;2023-06-24T07:10:11;6.70;;;3.73;;
15818;SDS011;8010;53.986;12.106;2023-06-24T07:12:38;4.23;;;3.67;;
15818;SDS011;8010;53.986;12.106;2023-06-24T07:15:04;3.73;;;3.10;;
15818;SDS011;8010;53.986;12.106;2023-06-24T07:17:30;4.17;;;3.30;;
15818;SDS011;8010;53.986;12.106;2023-06-24T07:19:55;4.80;;;3.47;;
15818;SDS011;8010;53.986;12.106;2023-06-24T07:22:21;5.47;;;3.43;;
15818;SDS011;8010;53.986;12.106;2023-06-24T07:24:47;5.27;;;3.50;;
15818;SDS011;8010;53.986;12.106;2023-06-24T07:27:12;5.40;;;3.40;;
15818;SDS011;8010;53.986;12.106;2023-06-24T07:29:38;3.87;;;3.23;;
15818;SDS011;8010;53.986;12.106;2023-06-24T07:32:03;5.20;;;3.33;;
15818;SDS011;8010;53.986;12.106;2023-06-24T07:34:29;4.33;;;2.93;;
15818;SDS011;8010;53.986;12.106;2023-06-24T07:36:55;4.83;;;3.17;;
15818;SDS011;8010;53.986;12.106;2023-06-24T07:39:22;4.93;;;3.30;;
15818;SDS011;8010;53.986;12.106;2023-06-24T07:41:47;4.13;;;3.40;;
15818;SDS011;8010;53.986;12.106;2023-06-24T07:44:13;5.77;;;3.17;;
15818;SDS011;8010;53.986;12.106;2023-06-24T07:46:38;5.83;;;3.60;;
15818;SDS011;8010;53.986;12.106;2023-06-24T07:49:04;7.10;;;3.23;;
15818;SDS011;8010;53.986;12.106;2023-06-24T07:51:29;4.70;;;3.03;;
15818;SDS011;8010;53.986;12.106;2023-06-24T07:53:55;4.90;;;3.00;;
15818;SDS011;8010;53.986;12.106;2023-06-24T07:56:20;5.07;;;3.27;;
15818;SDS011;8010;53.986;12.106;2023-06-24T07:58:46;4.80;;;3.00;;
15818;SDS011;8010;53.986;12.106;2023-06-24T08:01:11;4.07;;;2.80;;
15818;SDS011;8010;53.986;12.106;2023-06-24T08:03:37;4.27;;;3.33;;
15818;SDS011;8010;53.986;12.106;2023-06-24T08:06:03;3.63;;;2.90;;
15818;SDS011;8010;53.986;12.106;2023-06-24T08:08:29;5.47;;;2.90;;
15818;SDS011;8010;53.986;12.106;2023-06-24T08:10:54;5.83;;;3.23;;
15818;SDS011;8010;53.986;12.106;2023-06-24T08:13:20;5.07;;;3.00;;
15818;SDS011;8010;53.986;12.106;2023-06-24T08:15:46;2.90;;;2.60;;
15818;SDS011;8010;53.986;12.106;2023-06-24T08:18:11;5.70;;;2.90;;
15818;SDS011;8010;53.986;12.106;2023-06-24T08:20:37;5.33;;;2.30;;
15818;SDS011;8010;53.986;12.106;2023-06-24T08:23:02;4.00;;;2.93;;
15818;SDS011;8010;53.986;12.106;2023-06-24T08:25:28;3.90;;;2.67;;
15818;SDS011;8010;53.986;12.106;2023-06-24T08:27:53;4.20;;;3.07;;
15818;SDS011;8010;53.986;12.106;2023-06-24T08:30:19;3.67;;;2.97;;
15818;SDS011;8010;53.986;12.106;2023-06-24T08:32:44;4.37;;;3.27;;
15818;SDS011;8010;53.986;12.106;2023-06-24T08:35:10;3.37;;;2.70;;
15818;SDS011;8010;53.986;12.106;2023-06-24T08:37:36;3.40;;;2.53;;
15818;SDS011;8010;53.986;12.106;2023-06-24T08:40:02;3.43;;;2.93;;
15818;SDS011;8010;53.986;12.106;2023-06-24T08:42:29;4.33;;;3.63;;
15818;SDS011;8010;53.986;12.106;2023-06-24T08:44:55;4.00;;;3.10;;
15818;SDS011;8010;53.986;12.106;2023-06-24T08:47:20;7.33;;;3.70;;
15818;SDS011;8010;53.986;12.106;2023-06-24T08:49:51;4.50;;;3.20;;
15818;SDS011;8010;53.986;12.106;2023-06-24T08:52:21;5.10;;;3.40;;
15818;SDS011;8010;53.986;12.106;2023-06-24T08:54:51;4.23;;;3.23;;
15818;SDS011;8010;53.986;12.106;2023-06-24T08:57:20;3.10;;;2.80;;
15818;SDS011;8010;53.986;12.106;2023-06-24T08:59:45;3.57;;;2.97;;
15818;SDS011;8010;53.986;12.106;2023-06-24T09:02:11;4.43;;;2.97;;
15818;SDS011;8010;53.986;12.106;2023-06-24T09:04:38;5.27;;;3.17;;
15818;SDS011;8010;53.986;12.106;2023-06-24T09:07:04;5.27;;;2.80;;
15818;SDS011;8010;53.986;12.106;2023-06-24T09:09:30;3.27;;;2.80;;
15818;SDS011;8010;53.986;12.106;2023-06-24T09:11:59;4.90;;;3.13;;
15818;SDS011;8010;53.986;12.106;2023-06-24T09:14:26;4.43;;;3.00;;
15818;SDS011;8010;53.986;12.106;2023-06-24T09:16:54;3.40;;;3.00;;
15818;SDS011;8010;53.986;12.106;2023-06-24T09:19:22;6.00;;;3.20;;
15818;SDS011;8010;53.986;12.106;2023-06-24T09:21:48;4.70;;;3.30;;
15818;SDS011;8010;53.986;12.106;2023-06-24T09:24:14;4.87;;;3.30;;
15818;SDS011;8010;53.986;12.106;2023-06-24T09:26:41;3.57;;;2.90;;
15818;SDS011;8010;53.986;12.106;2023-06-24T09:29:09;6.03;;;3.40;;
15818;SDS011;8010;53.986;12.106;2023-06-24T09:31:36;4.40;;;2.90;;
15818;SDS011;8010;53.986;12.106;2023-06-24T09:34:14;3.60;;;2.90;;
15818;SDS011;8010;53.986;12.106;2023-06-24T09:36:44;4.13;;;2.70;;
15818;SDS011;8010;53.986;12.106;2023-06-24T09:39:10;2.77;;;2.53;;
15818;SDS011;8010;53.986;12.106;2023-06-24T09:41:36;3.00;;;2.63;;
15818;SDS011;8010;53.986;12.106;2023-06-24T09:44:07;3.83;;;2.77;;
15818;SDS011;8010;53.986;12.106;2023-06-24T09:46:35;3.10;;;2.53;;
15818;SDS011;8010;53.986;12.106;2023-06-24T09:49:02;5.07;;;2.67;;
15818;SDS011;8010;53.986;12.106;2023-06-24T09:51:28;4.57;;;3.00;;
15818;SDS011;8010;53.986;12.106;2023-06-24T09:53:57;3.83;;;2.80;;
15818;SDS011;8010;53.986;12.106;2023-06-24T09:56:23;4.23;;;3.07;;
15818;SDS011;8010;53.986;12.106;2023-06-24T09:58:49;4.20;;;2.47;;
15818;SDS011;8010;53.986;12.106;2023-06-24T10:01:14;4.00;;;2.90;;
15818;SDS011;8010;53.986;12.106;2023-06-24T10:03:42;5.27;;;3.37;;
15818;SDS011;8010;53.986;12.106;2023-06-24T10:06:08;4.07;;;2.30;;
15818;SDS011;8010;53.986;12.106;2023-06-24T10:08:34;3.03;;;2.73;;
15818;SDS011;8010;53.986;12.106;2023-06-24T10:10:59;4.30;;;3.10;;
15818;SDS011;8010;53.986;12.106;2023-06-24T10:13:26;5.27;;;3.00;;
15818;SDS011;8010;53.986;12.106;2023-06-24T10:15:54;3.10;;;2.53;;
15818;SDS011;8010;53.986;12.106;2023-06-24T10:20:55;4.00;;;2.60;;
15818;SDS011;8010;53.986;12.106;2023-06-24T10:23:21;3.07;;;2.77;;
15818;SDS011;8010;53.986;12.106;2023-06-24T10:25:47;3.67;;;2.70;;
15818;SDS011;8010;53.986;12.106;2023-06-24T10:28:13;4.77;;;3.23;;
15818;SDS011;8010;53.986;12.106;2023-06-24T10:30:38;4.10;;;2.30;;
15818;SDS011;8010;53.986;12.106;2023-06-24T10:33:04;3.43;;;2.77;;
15818;SDS011;8010;53.986;12.106;2023-06-24T10:35:40;2.53;;;2.33;;
15818;SDS011;8010;53.986;12.106;2023-06-24T10:38:09;6.43;;;3.00;;
15818;SDS011;8010;53.986;12.106;2023-06-24T10:40:36;3.67;;;2.77;;
15818;SDS011;8010;53.986;12.106;2023-06-24T10:43:22;3.20;;;2.50;;
15818;SDS011;8010;53.986;12.106;2023-06-24T10:45:58;4.50;;;2.83;;
15818;SDS011;8010;53.986;12.106;2023-06-24T10:48:24;3.60;;;2.57;;
15818;SDS011;8010;53.986;12.106;2023-06-24T10:50:49;3.80;;;2.40;;
15818;SDS011;8010;53.986;12.106;2023-06-24T10:53:15;2.93;;;2.10;;
15818;SDS011;8010;53.986;12.106;2023-06-24T10:55:43;2.67;;;2.10;;
15818;SDS011;8010;53.986;12.106;2023-06-24T10:58:09;3.03;;;2.20;;
15818;SDS011;8010;53.986;12.106;2023-06-24T11:00:37;2.13;;;1.93;;
15818;SDS011;8010;53.986;12.106;2023-06-24T11:03:13;3.00;;;2.23;;
15818;SDS011;8010;53.986;12.106;2023-06-24T11:05:40;2.83;;;2.00;;
15818;SDS011;8010;53.986;12.106;2023-06-24T11:08:07;2.83;;;2.37;;
15818;SDS011;8010;53.986;12.106;2023-06-24T11:10:33;2.97;;;2.20;;
15818;SDS011;8010;53.986;12.106;2023-06-24T11:13:13;2.30;;;2.00;;
15818;SDS011;8010;53.986;12.106;2023-06-24T11:15:39;2.93;;;2.30;;
15818;SDS011;8010;53.986;12.106;2023-06-24T11:18:07;4.53;;;2.07;;
15818;SDS011;8010;53.986;12.106;2023-06-24T11:20:36;4.37;;;2.70;;
15818;SDS011;8010;53.986;12.106;2023-06-24T11:23:05;2.37;;;2.17;;
15818;SDS011;8010;53.986;12.106;2023-06-24T11:25:37;3.47;;;1.97;;
15818;SDS011;8010;53.986;12.106;2023-06-24T11:28:17;2.37;;;1.93;;
15818;SDS011;8010;53.986;12.106;2023-06-24T11:30:43;2.20;;;1.80;;
15818;SDS011;8010;53.986;12.106;2023-06-24T11:33:08;2.23;;;1.77;;
15818;SDS011;8010;53.986;12.106;2023-06-24T11:35:34;1.93;;;1.50;;
15818;SDS011;8010;53.986;12.106;2023-06-24T11:38:01;1.67;;;1.57;;
15818;SDS011;8010;53.986;12.106;2023-06-24T11:40:27;3.43;;;1.97;;
15818;SDS011;8010;53.986;12.106;2023-06-24T11:42:55;2.53;;;1.90;;
15818;SDS011;8010;53.986;12.106;2023-06-24T11:45:21;2.67;;;2.10;;
15818;SDS011;8010;53.986;12.106;2023-06-24T11:47:47;2.10;;;1.90;;
15818;SDS011;8010;53.986;12.106;2023-06-24T11:50:13;1.87;;;1.70;;
15818;SDS011;8010;53.986;12.106;2023-06-24T11:52:43;2.23;;;2.03;;
15818;SDS011;8010;53.986;12.106;2023-06-24T12:00:24;2.30;;;1.80;;
15818;SDS011;8010;53.986;12.106;2023-06-24T12:02:52;1.77;;;1.67;;
15818;SDS011;8010;53.986;12.106;2023-06-24T12:05:29;2.40;;;2.20;;
15818;SDS011;8010;53.986;12.106;2023-06-24T12:07:57;3.87;;;2.20;;
15818;SDS011;8010;53.986;12.106;2023-06-24T12:10:32;3.87;;;2.03;;
15818;SDS011;8010;53.986;12.106;2023-06-24T12:12:59;2.10;;;1.90;;
15818;SDS011;8010;53.986;12.106;2023-06-24T12:15:26;2.63;;;2.10;;
15818;SDS011;8010;53.986;12.106;2023-06-24T12:17:52;3.07;;;2.07;;
15818;SDS011;8010;53.986;12.106;2023-06-24T12:20:18;2.30;;;1.70;;
15818;SDS011;8010;53.986;12.106;2023-06-24T12:22:44;1.93;;;1.80;;
15818;SDS011;8010;53.986;12.106;2023-06-24T12:25:10;2.47;;;1.70;;
15818;SDS011;8010;53.986;12.106;2023-06-24T12:27:36;2.03;;;1.87;;
15818;SDS011;8010;53.986;12.106;2023-06-24T12:30:03;1.60;;;1.50;;
15818;SDS011;8010;53.986;12.106;2023-06-24T12:32:29;1.93;;;1.70;;
15818;SDS011;8010;53.986;12.106;2023-06-24T12:34:55;2.27;;;1.77;;
15818;SDS011;8010;53.986;12.106;2023-06-24T12:37:21;2.10;;;2.00;;
15818;SDS011;8010;53.986;12.106;2023-06-24T12:39:47;3.10;;;1.60;;
15818;SDS011;8010;53.986;12.106;2023-06-24T12:42:13;2.37;;;1.80;;
15818;SDS011;8010;53.986;12.106;2023-06-24T12:44:38;2.03;;;1.83;;
15818;SDS011;8010;53.986;12.106;2023-06-24T12:47:04;4.13;;;2.40;;
15818;SDS011;8010;53.986;12.106;2023-06-24T12:49:30;2.53;;;2.10;;
15818;SDS011;8010;53.986;12.106;2023-06-24T12:51:56;2.27;;;2.07;;
15818;SDS011;8010;53.986;12.106;2023-06-24T12:54:21;2.37;;;1.73;;
15818;SDS011;8010;53.986;12.106;2023-06-24T12:56:47;1.80;;;1.70;;
15818;SDS011;8010;53.986;12.106;2023-06-24T12:59:12;2.00;;;1.80;;
15818;SDS011;8010;53.986;12.106;2023-06-24T13:01:38;1.97;;;1.67;;
15818;SDS011;8010;53.986;12.106;2023-06-24T13:04:04;3.40;;;1.70;;
15818;SDS011;8010;53.986;12.106;2023-06-24T13:06:30;2.67;;;2.00;;
15818;SDS011;8010;53.986;12.106;2023-06-24T13:08:55;3.70;;;1.80;;
15818;SDS011;8010;53.986;12.106;2023-06-24T13:11:21;2.13;;;1.90;;
15818;SDS011;8010;53.986;12.106;2023-06-24T13:13:47;2.97;;;2.00;;
15818;SDS011;8010;53.986;12.106;2023-06-24T13:16:13;2.10;;;1.47;;
15818;SDS011;8010;53.986;12.106;2023-06-24T13:18:38;2.33;;;1.70;;
15818;SDS011;8010;53.986;12.106;2023-06-24T13:21:04;2.40;;;1.83;;
15818;SDS011;8010;53.986;12.106;2023-06-24T13:23:30;2.33;;;1.90;;
15818;SDS011;8010;53.986;12.106;2023-06-24T13:25:55;2.20;;;1.73;;
15818;SDS011;8010;53.986;12.106;2023-06-24T13:28:21;2.57;;;1.83;;
15818;SDS011;8010;53.986;12.106;2023-06-24T13:30:47;2.43;;;1.83;;
15818;SDS011;8010;53.986;12.106;2023-06-24T13:33:12;3.63;;;2.10;;
15818;SDS011;8010;53.986;12.106;2023-06-24T13:35:38;3.20;;;1.70;;
15818;SDS011;8010;53.986;12.106;2023-06-24T13:38:03;3.30;;;1.73;;
15818;SDS011;8010;53.986;12.106;2023-06-24T13:40:29;1.97;;;1.80;;
15818;SDS011;8010;53.986;12.106;2023-06-24T13:42:56;2.53;;;1.80;;
15818;SDS011;8010;53.986;12.106;2023-06-24T13:45:21;2.37;;;1.93;;
15818;SDS011;8010;53.986;12.106;2023-06-24T13:47:47;2.50;;;2.20;;
15818;SDS011;8010;53.986;12.106;2023-06-24T13:50:13;2.13;;;1.67;;
15818;SDS011;8010;53.986;12.106;2023-06-24T13:52:38;2.60;;;1.83;;
15818;SDS011;8010;53.986;12.106;2023-06-24T13:55:04;4.53;;;1.80;;
15818;SDS011;8010;53.986;12.106;2023-06-24T13:57:30;2.27;;;1.60;;
15818;SDS011;8010;53.986;12.106;2023-06-24T13:59:56;2.40;;;2.10;;
15818;SDS011;8010;53.986;12.106;2023-06-24T14:02:21;3.17;;;1.80;;
15818;SDS011;8010;53.986;12.106;2023-06-24T14:04:47;2.93;;;1.90;;
15818;SDS011;8010;53.986;12.106;2023-06-24T14:07:13;4.03;;;1.87;;
15818;SDS011;8010;53.986;12.106;2023-06-24T14:09:38;2.27;;;1.87;;
15818;SDS011;8010;53.986;12.106;2023-06-24T14:12:05;2.10;;;1.90;;
15818;SDS011;8010;53.986;12.106;2023-06-24T14:14:31;2.57;;;1.53;;
15818;SDS011;8010;53.986;12.106;2023-06-24T14:16:57;2.87;;;2.10;;
15818;SDS011;8010;53.986;12.106;2023-06-24T14:19:22;2.43;;;1.90;;
15818;SDS011;8010;53.986;12.106;2023-06-24T14:21:48;2.53;;;1.83;;
15818;SDS011;8010;53.986;12.106;2023-06-24T14:24:13;1.97;;;1.77;;
15818;SDS011;8010;53.986;12.106;2023-06-24T14:26:39;4.20;;;2.17;;
15818;SDS011;8010;53.986;12.106;2023-06-24T14:29:04;2.53;;;1.63;;
15818;SDS011;8010;53.986;12.106;2023-06-24T14:31:30;2.93;;;1.83;;
15818;SDS011;8010;53.986;12.106;2023-06-24T14:33:55;3.27;;;1.90;;
15818;SDS011;8010;53.986;12.106;2023-06-24T14:36:21;3.07;;;2.43;;
15818;SDS011;8010;53.986;12.106;2023-06-24T14:38:47;2.07;;;1.77;;
15818;SDS011;8010;53.986;12.106;2023-06-24T14:41:12;2.00;;;1.80;;
15818;SDS011;8010;53.986;12.106;2023-06-24T14:43:38;1.87;;;1.70;;
15818;SDS011;8010;53.986;12.106;2023-06-24T14:46:03;2.23;;;1.80;;
15818;SDS011;8010;53.986;12.106;2023-06-24T14:48:29;3.07;;;2.17;;
15818;SDS011;8010;53.986;12.106;2023-06-24T14:50:54;1.90;;;1.50;;
15818;SDS011;8010;53.986;12.106;2023-06-24T14:53:20;3.13;;;2.13;;
15818;SDS011;8010;53.986;12.106;2023-06-24T14:55:45;1.90;;;1.80;;
15818;SDS011;8010;53.986;12.106;2023-06-24T14:58:11;1.97;;;1.60;;
15818;SDS011;8010;53.986;12.106;2023-06-24T15:00:37;2.57;;;2.10;;
15818;SDS011;8010;53.986;12.106;2023-06-24T15:03:02;3.53;;;2.03;;